Time;durP1;ratioP1;P1;durP2;ratioP2;P2;SDS_P1;SDS_P2;PMS_P1;PMS_P2;Temp;Humidity;BMP_temperature;BMP_pressure;BME280_temperature;BME280_humidity;BME280_pressure;Samples;Min_cycle;Max_cycle;Signal;HPM_P1;HPM_P2
2022/11/09 00:30:12;;;;;;;43.95;25.27;;;10.30;99.90;;;;;;4904043;28;21002;-83
2022/11/09 00:32:37;;;;;;;42.15;24.27;;;10.30;99.90;;;;;;4910388;28;20043;-85
2022/11/09 00:35:03;;;;;;;44.22;25.90;;;10.30;99.90;;;;;;4922447;28;20032;-80
2022/11/09 00:37:29;;;;;;;45.58;26.00;;;10.20;99.90;;;;;;4915511;28;20714;-81
2022/11/09 00:39:55;;;;;;;43.40;25.88;;;10.20;99.90;;;;;;4919249;28;20451;-80
2022/11/09 00:42:20;;;;;;;46.22;25.25;;;10.20;99.90;;;;;;4918823;28;20485;-77
2022/11/09 00:44:46;;;;;;;42.97;25.17;;;10.20;99.90;;;;;;4924100;28;20633;-80
2022/11/09 00:47:11;;;;;;;44.08;26.17;;;10.20;99.90;;;;;;4922715;28;20043;-80
2022/11/09 00:49:37;;;;;;;46.88;25.50;;;10.20;99.90;;;;;;4925110;28;20511;-81
2022/11/09 00:52:03;;;;;;;49.75;27.77;;;10.30;99.90;;;;;;4920025;28;20030;-81
2022/11/09 00:54:28;;;;;;;47.67;27.08;;;10.30;99.90;;;;;;4922159;28;20138;-83
2022/11/09 00:56:54;;;;;;;43.20;25.90;;;10.30;99.90;;;;;;4920800;28;20456;-82
2022/11/09 00:59:19;;;;;;;48.13;25.95;;;10.30;99.90;;;;;;4926501;28;20496;-81
2022/11/09 01:01:45;;;;;;;50.05;26.27;;;10.30;99.90;;;;;;4913441;28;20040;-83
2022/11/09 01:04:11;;;;;;;50.00;26.73;;;10.30;99.90;;;;;;4916176;28;21991;-82
2022/11/09 01:06:36;;;;;;;47.90;25.52;;;10.30;99.90;;;;;;4918916;28;20034;-80
2022/11/09 01:09:02;;;;;;;42.92;25.80;;;10.30;99.90;;;;;;4923324;28;20035;-82
2022/11/09 01:11:28;;;;;;;46.80;26.15;;;10.30;99.90;;;;;;4922513;28;20035;-81
2022/11/09 01:13:54;;;;;;;48.78;27.48;;;10.30;99.90;;;;;;4923887;28;20093;-81
2022/11/09 01:18:10;;;;;;;41.45;25.23;;;10.40;99.90;;;;;;5060569;27;20889;-82
2022/11/09 01:20:44;;;;;;;45.60;26.27;;;10.40;99.90;;;;;;5062104;28;20039;-81
2022/11/09 01:23:11;;;;;;;44.42;26.42;;;10.40;99.90;;;;;;5077403;28;20028;-83
2022/11/09 01:25:37;;;;;;;46.47;25.90;;;10.40;99.90;;;;;;5078985;28;20051;-83
2022/11/09 01:28:04;;;;;;;45.80;27.15;;;10.50;99.90;;;;;;5095986;27;20046;-81
2022/11/09 01:30:33;;;;;;;44.50;26.80;;;10.40;99.90;;;;;;5081885;28;20035;-82
2022/11/09 01:33:01;;;;;;;52.78;27.02;;;10.50;99.90;;;;;;5077961;28;20034;-81
2022/11/09 01:35:26;;;;;;;53.47;27.45;;;10.40;99.90;;;;;;5081530;28;20042;-81
2022/11/09 01:37:52;;;;;;;47.47;26.27;;;10.40;99.90;;;;;;5081335;28;20032;-81
2022/11/09 01:40:18;;;;;;;45.95;26.23;;;10.40;99.90;;;;;;5077651;28;20027;-81
2022/11/09 01:42:43;;;;;;;51.05;27.50;;;10.40;99.90;;;;;;5081883;28;20038;-81
2022/11/09 01:45:18;;;;;;;45.45;26.48;;;10.40;99.90;;;;;;5080735;28;20032;-80
2022/11/09 01:48:11;;;;;;;46.22;26.23;;;10.50;99.90;;;;;;5083067;28;20388;-79
2022/11/09 01:50:49;;;;;;;48.72;26.77;;;10.50;99.90;;;;;;5080108;28;20028;-79
2022/11/09 01:53:18;;;;;;;49.95;26.80;;;10.50;99.90;;;;;;5072351;28;20039;-79
2022/11/09 01:56:00;;;;;;;54.38;30.42;;;10.50;99.90;;;;;;5077168;28;20167;-78
2022/11/09 01:59:00;;;;;;;55.42;29.90;;;10.50;99.90;;;;;;5076224;28;20089;-79
2022/11/09 02:01:26;;;;;;;47.42;28.42;;;10.50;99.90;;;;;;5073198;28;20051;-79
2022/11/09 02:04:09;;;;;;;49.35;28.15;;;10.50;99.90;;;;;;5074737;28;20036;-79
2022/11/09 02:06:35;;;;;;;49.92;27.05;;;10.50;99.90;;;;;;5084354;28;20762;-78
2022/11/09 02:09:29;;;;;;;53.08;29.60;;;10.50;99.90;;;;;;5078050;28;20422;-78
2022/11/09 02:11:55;;;;;;;53.10;30.77;;;10.50;99.90;;;;;;5067419;28;20048;-79
2022/11/09 02:14:24;;;;;;;49.40;27.77;;;10.50;99.90;;;;;;5078502;28;20050;-78
2022/11/09 02:16:49;;;;;;;43.70;26.65;;;10.50;99.90;;;;;;5075609;28;20056;-78
2022/11/09 02:19:15;;;;;;;45.97;26.70;;;10.40;99.90;;;;;;5074354;28;20317;-78
2022/11/09 02:21:41;;;;;;;39.08;23.88;;;10.50;99.90;;;;;;5075748;28;20063;-78
2022/11/09 02:24:06;;;;;;;41.10;25.58;;;10.50;99.90;;;;;;5079532;28;20039;-79
2022/11/09 02:26:38;;;;;;;36.47;24.33;;;10.50;99.90;;;;;;5078903;28;20941;-79
2022/11/09 02:29:07;;;;;;;39.42;25.25;;;10.60;99.90;;;;;;5070387;28;20071;-79
2022/11/09 02:31:36;;;;;;;37.92;24.83;;;10.50;99.90;;;;;;5063350;28;20067;-78
2022/11/09 02:34:16;;;;;;;39.25;24.90;;;10.50;99.90;;;;;;5062610;28;20032;-79
2022/11/09 02:36:42;;;;;;;38.90;24.83;;;10.60;99.90;;;;;;5055323;28;20044;-79
2022/11/09 02:39:09;;;;;;;37.45;24.35;;;10.60;99.90;;;;;;5057827;28;21828;-78
2022/11/09 02:41:41;;;;;;;35.35;23.52;;;10.60;99.90;;;;;;5060148;28;20087;-79
2022/11/09 02:44:08;;;;;;;36.35;23.52;;;10.60;99.90;;;;;;5055644;28;20024;-76
2022/11/09 02:46:35;;;;;;;35.50;23.15;;;10.60;99.90;;;;;;5059123;28;20034;-76
2022/11/09 02:49:02;;;;;;;32.53;21.88;;;10.60;99.90;;;;;;5057688;28;20043;-76
2022/11/09 02:51:28;;;;;;;35.60;23.40;;;10.60;99.90;;;;;;5054912;28;20408;-76
2022/11/09 02:53:54;;;;;;;33.20;21.45;;;10.60;99.90;;;;;;5062994;28;20120;-76
2022/11/09 02:56:20;;;;;;;31.90;22.23;;;10.70;99.90;;;;;;5062605;28;20028;-75
2022/11/09 02:58:46;;;;;;;33.42;21.40;;;10.70;99.90;;;;;;5068837;28;20059;-76
2022/11/09 03:01:11;;;;;;;34.33;21.77;;;10.70;99.90;;;;;;5057594;28;20024;-78
2022/11/09 03:03:37;;;;;;;36.70;22.92;;;10.70;99.90;;;;;;5061473;28;20184;-77
2022/11/09 03:06:03;;;;;;;30.80;21.10;;;10.70;99.90;;;;;;5063792;28;20028;-77
2022/11/09 03:08:28;;;;;;;33.88;22.10;;;10.60;99.90;;;;;;5066477;28;20028;-79
2022/11/09 03:10:54;;;;;;;32.97;22.40;;;10.60;99.90;;;;;;5064105;28;20043;-78
2022/11/09 03:13:20;;;;;;;34.00;22.27;;;10.60;99.90;;;;;;5055115;28;20036;-79
2022/11/09 03:15:46;;;;;;;31.70;21.33;;;10.60;99.90;;;;;;5063906;28;20546;-78
2022/11/09 03:18:11;;;;;;;32.55;22.30;;;10.50;99.90;;;;;;5060430;28;20032;-78
2022/11/09 03:20:37;;;;;;;32.83;21.98;;;10.50;99.90;;;;;;5061648;28;20032;-79
2022/11/09 03:23:02;;;;;;;32.28;21.73;;;10.60;99.90;;;;;;5062494;28;20213;-78
2022/11/09 03:25:28;;;;;;;30.98;21.13;;;10.60;99.90;;;;;;5063754;28;20169;-79
2022/11/09 03:27:59;;;;;;;33.65;21.95;;;10.60;99.90;;;;;;5065573;28;20032;-79
2022/11/09 03:30:25;;;;;;;32.00;21.83;;;10.50;99.90;;;;;;5060131;28;20131;-79
2022/11/09 03:32:50;;;;;;;34.38;21.33;;;10.60;99.90;;;;;;5061682;28;20024;-78
2022/11/09 03:35:16;;;;;;;33.58;21.73;;;10.70;99.90;;;;;;5069888;28;20053;-78
2022/11/09 03:37:41;;;;;;;32.95;21.58;;;10.70;99.90;;;;;;5066849;28;20035;-78
2022/11/09 03:40:07;;;;;;;35.72;22.27;;;10.70;99.90;;;;;;5066191;28;20039;-78
2022/11/09 03:42:33;;;;;;;33.60;21.48;;;10.70;99.90;;;;;;5066404;28;20040;-78
2022/11/09 03:44:58;;;;;;;34.83;22.08;;;10.70;99.90;;;;;;5061950;28;20074;-78
2022/11/09 03:47:24;;;;;;;32.25;21.92;;;10.80;99.90;;;;;;5063182;28;20040;-79
2022/11/09 03:49:50;;;;;;;38.30;22.70;;;10.70;99.90;;;;;;5063829;28;20057;-76
2022/11/09 03:52:15;;;;;;;35.85;23.40;;;10.70;99.90;;;;;;5068199;28;20035;-78
2022/11/09 03:54:41;;;;;;;35.88;23.13;;;10.70;99.90;;;;;;5065358;28;20692;-77
2022/11/09 03:57:07;;;;;;;36.20;22.85;;;10.70;99.90;;;;;;5065045;28;20040;-77
2022/11/09 03:59:32;;;;;;;37.88;23.27;;;10.70;99.90;;;;;;5067658;28;20050;-76
2022/11/09 04:01:58;;;;;;;39.92;23.15;;;10.70;99.90;;;;;;5065564;28;20514;-75
2022/11/09 04:04:24;;;;;;;34.42;22.15;;;10.60;99.90;;;;;;5062857;28;20050;-74
2022/11/09 04:06:49;;;;;;;35.75;22.58;;;10.60;99.90;;;;;;5059217;28;20062;-75
2022/11/09 04:09:15;;;;;;;39.55;23.73;;;10.60;99.90;;;;;;5064709;28;20109;-74
2022/11/09 04:11:40;;;;;;;41.58;22.40;;;10.60;99.90;;;;;;5058587;28;20046;-75
2022/11/09 04:14:06;;;;;;;34.70;21.60;;;10.60;99.90;;;;;;5065645;28;21359;-75
2022/11/09 04:16:32;;;;;;;35.50;21.83;;;10.60;99.90;;;;;;5066572;28;20048;-76
2022/11/09 04:18:57;;;;;;;32.80;21.75;;;10.60;99.90;;;;;;5062183;28;20043;-75
2022/11/09 04:21:23;;;;;;;29.90;20.95;;;10.60;99.90;;;;;;5063072;28;20024;-75
2022/11/09 04:23:48;;;;;;;38.33;22.33;;;10.50;99.90;;;;;;5058466;28;20035;-75
2022/11/09 04:26:14;;;;;;;36.60;22.52;;;10.50;99.90;;;;;;5062938;28;20031;-75
2022/11/09 04:28:39;;;;;;;36.00;22.35;;;10.50;99.90;;;;;;5061948;28;20535;-75
2022/11/09 04:31:05;;;;;;;36.15;21.92;;;10.60;99.90;;;;;;5062106;28;20636;-75
2022/11/09 04:33:31;;;;;;;37.40;22.55;;;10.50;99.90;;;;;;5058648;28;20693;-75
2022/11/09 04:36:06;;;;;;;36.75;22.95;;;10.50;99.90;;;;;;5063666;28;20088;-75
2022/11/09 04:38:32;;;;;;;36.05;22.60;;;10.60;99.90;;;;;;5063306;28;20077;-75
2022/11/09 04:41:04;;;;;;;38.17;22.73;;;10.60;99.90;;;;;;5060019;28;20036;-75
2022/11/09 04:43:30;;;;;;;34.63;22.02;;;10.50;99.90;;;;;;5065406;28;20593;-75
2022/11/09 04:46:02;;;;;;;36.22;22.95;;;10.60;99.90;;;;;;5063315;28;20028;-75
2022/11/09 04:48:28;;;;;;;;;;;10.60;99.90;;;;;;5060671;28;20027;-75
2022/11/09 04:51:02;;;;;;;35.15;20.25;;;10.60;99.90;;;;;;5065702;28;19919;-75
2022/11/09 04:53:28;;;;;;;36.40;22.05;;;10.60;99.90;;;;;;5065547;28;20035;-75
2022/11/09 04:55:55;;;;;;;38.88;23.60;;;10.60;99.90;;;;;;5065655;28;20024;-79
2022/11/09 04:58:20;;;;;;;34.58;21.60;;;10.50;99.90;;;;;;5061721;28;20164;-78
2022/11/09 05:00:46;;;;;;;40.90;22.40;;;10.60;99.90;;;;;;5067532;28;20053;-78
2022/11/09 05:03:11;;;;;;;38.88;23.35;;;10.60;99.90;;;;;;5065283;28;20024;-79
2022/11/09 05:05:38;;;;;;;34.63;22.05;;;10.60;99.90;;;;;;5061677;28;20024;-79
2022/11/09 05:08:05;;;;;;;36.45;22.33;;;10.60;99.90;;;;;;5065894;28;20043;-79
2022/11/09 05:10:30;;;;;;;40.28;23.52;;;10.60;99.90;;;;;;5065184;28;20455;-79
2022/11/09 05:13:01;;;;;;;40.10;23.42;;;10.60;99.90;;;;;;5060540;28;20130;-79
2022/11/09 05:15:28;;;;;;;38.40;22.75;;;10.50;99.90;;;;;;5060581;28;20051;-79
2022/11/09 05:17:54;;;;;;;36.28;23.23;;;10.50;99.90;;;;;;5056766;28;20048;-79
2022/11/09 05:20:20;;;;;;;38.00;22.42;;;10.50;99.90;;;;;;5056969;28;20282;-79
2022/11/09 05:25:30;;;;;;;36.63;22.88;;;10.60;99.90;;;;;;5063307;28;20073;-79
2022/11/09 05:27:55;;;;;;;38.83;23.67;;;10.60;99.90;;;;;;5066280;28;20040;-81
2022/11/09 05:30:21;;;;;;;40.78;22.92;;;10.60;99.90;;;;;;5064410;28;21430;-81
2022/11/09 05:32:47;;;;;;;39.15;22.80;;;10.60;99.90;;;;;;5059365;28;20036;-80
2022/11/09 05:35:13;;;;;;;39.90;22.92;;;10.60;99.90;;;;;;5068991;28;20076;-81
2022/11/09 05:37:39;;;;;;;36.42;23.00;;;10.50;99.90;;;;;;5070305;28;20118;-81
2022/11/09 05:40:06;;;;;;;41.20;24.42;;;10.50;99.90;;;;;;5086029;28;20039;-80
2022/11/09 05:42:31;;;;;;;47.67;25.73;;;10.60;99.90;;;;;;5070654;28;20032;-80
2022/11/09 05:44:57;;;;;;;42.58;24.50;;;10.60;99.90;;;;;;5060352;28;20028;-78
2022/11/09 05:47:23;;;;;;;41.15;24.90;;;10.60;99.90;;;;;;5059233;28;20085;-77
2022/11/09 05:49:49;;;;;;;44.70;25.58;;;10.60;99.90;;;;;;5054744;28;20028;-77
2022/11/09 05:52:14;;;;;;;46.08;26.00;;;10.60;99.90;;;;;;5062740;28;20028;-77
2022/11/09 05:54:40;;;;;;;50.78;27.05;;;10.60;99.90;;;;;;5058815;28;20036;-73
2022/11/09 05:57:06;;;;;;;53.22;28.52;;;10.70;99.90;;;;;;5059523;28;20036;-73
2022/11/09 05:59:31;;;;;;;57.97;31.90;;;10.60;99.90;;;;;;5064009;28;20031;-74
2022/11/09 06:01:57;;;;;;;56.13;31.55;;;10.60;99.90;;;;;;5066627;28;20081;-75
2022/11/09 06:04:22;;;;;;;45.35;28.08;;;10.60;99.90;;;;;;5064744;28;20780;-74
2022/11/09 06:06:48;;;;;;;48.20;26.55;;;10.50;99.90;;;;;;5061185;28;20043;-74
2022/11/09 06:09:13;;;;;;;48.67;27.40;;;10.60;99.90;;;;;;5059048;28;20024;-73
2022/11/09 06:11:39;;;;;;;48.50;26.67;;;10.50;99.90;;;;;;5067892;28;20369;-75
2022/11/09 06:14:05;;;;;;;52.10;28.35;;;10.50;99.90;;;;;;5066634;28;20119;-82
2022/11/09 06:16:30;;;;;;;55.40;27.80;;;10.60;99.90;;;;;;5066980;28;20043;-81
2022/11/09 06:18:56;;;;;;;52.88;25.83;;;10.50;99.90;;;;;;5064638;28;20032;-82
2022/11/09 06:21:22;;;;;;;51.45;26.52;;;10.50;99.90;;;;;;5072500;28;20546;-83
2022/11/09 06:23:47;;;;;;;50.10;26.65;;;10.60;99.90;;;;;;5062434;28;21281;-83
2022/11/09 06:26:13;;;;;;;52.17;25.45;;;10.50;99.90;;;;;;5064403;28;20035;-80
2022/11/09 06:28:40;;;;;;;47.50;26.70;;;10.50;99.90;;;;;;5066837;28;20381;-81
2022/11/09 06:31:09;;;;;;;36.85;22.42;;;10.50;99.90;;;;;;5069880;28;20028;-84
2022/11/09 06:33:35;;;;;;;30.73;19.70;;;10.50;99.90;;;;;;5062384;28;20064;-81
2022/11/09 06:36:02;;;;;;;30.05;19.45;;;10.60;99.90;;;;;;5067358;28;20409;-79
2022/11/09 06:38:28;;;;;;;37.53;20.80;;;10.70;99.90;;;;;;5072297;28;20031;-80
2022/11/09 06:40:56;;;;;;;32.00;20.42;;;10.70;99.90;;;;;;5065854;28;20065;-83
2022/11/09 06:43:22;;;;;;;30.95;19.58;;;10.70;99.90;;;;;;5066846;28;20121;-82
2022/11/09 06:45:48;;;;;;;31.08;19.83;;;10.70;99.90;;;;;;5062026;28;20516;-76
2022/11/09 06:48:14;;;;;;;29.77;19.65;;;10.70;99.90;;;;;;5066939;28;20035;-77
2022/11/09 06:50:39;;;;;;;35.30;19.48;;;10.80;99.90;;;;;;5070217;28;20032;-81
2022/11/09 06:53:08;;;;;;;32.55;20.30;;;10.70;99.90;;;;;;5094387;28;20027;-81
2022/11/09 06:55:35;;;;;;;33.10;19.70;;;10.60;99.90;;;;;;5076605;28;20546;-81
2022/11/09 06:58:08;;;;;;;29.55;18.70;;;10.60;99.90;;;;;;5074433;28;20073;-80
2022/11/09 07:00:34;;;;;;;33.08;19.75;;;10.60;99.90;;;;;;5077682;28;20048;-80
2022/11/09 07:02:59;;;;;;;29.92;19.30;;;10.50;99.90;;;;;;5073333;28;20169;-80
2022/11/09 07:05:25;;;;;;;30.10;19.40;;;10.50;99.90;;;;;;5093091;28;20082;-79
2022/11/09 07:07:51;;;;;;;29.60;19.00;;;10.60;99.90;;;;;;5074176;28;20039;-81
2022/11/09 07:10:16;;;;;;;29.35;18.30;;;10.60;99.90;;;;;;5079603;28;20122;-79
2022/11/09 07:12:42;;;;;;;33.55;20.10;;;10.60;99.90;;;;;;5072702;28;20091;-79
2022/11/09 07:15:08;;;;;;;31.60;18.73;;;10.50;99.90;;;;;;5077337;28;20024;-80
2022/11/09 07:17:37;;;;;;;27.85;16.95;;;10.60;99.90;;;;;;5076462;28;20051;-80
2022/11/09 07:20:03;;;;;;;24.85;16.77;;;10.50;99.90;;;;;;5064809;28;20036;-80
2022/11/09 07:22:29;;;;;;;26.17;17.52;;;10.60;99.90;;;;;;5081808;28;20032;-79
2022/11/09 07:24:54;;;;;;;21.85;16.10;;;10.60;99.90;;;;;;5068711;28;20169;-80
2022/11/09 07:27:21;;;;;;;26.45;16.98;;;10.50;99.90;;;;;;5066606;28;21602;-80
2022/11/09 07:29:46;;;;;;;23.67;15.77;;;10.50;99.90;;;;;;5076430;28;20476;-81
2022/11/09 07:32:12;;;;;;;24.10;15.90;;;10.50;99.90;;;;;;5064785;28;20046;-81
2022/11/09 07:34:38;;;;;;;22.67;15.98;;;10.40;99.90;;;;;;5075066;28;20024;-79
2022/11/09 07:37:03;;;;;;;25.73;16.48;;;10.30;99.90;;;;;;5074340;28;20067;-81
2022/11/09 07:39:29;;;;;;;25.58;17.23;;;10.30;99.90;;;;;;5075711;28;20111;-80
2022/11/09 07:41:54;;;;;;;24.92;17.15;;;10.40;99.90;;;;;;5089437;28;20039;-80
2022/11/09 07:44:20;;;;;;;23.77;16.05;;;10.40;99.90;;;;;;5070982;28;20103;-81
2022/11/09 07:46:47;;;;;;;23.35;14.75;;;10.30;99.90;;;;;;5070448;28;20073;-80
2022/11/09 07:49:13;;;;;;;22.80;15.43;;;10.30;99.90;;;;;;5065457;28;20110;-79
2022/11/09 07:51:40;;;;;;;21.63;14.13;;;10.40;99.90;;;;;;5071873;28;20143;-81
2022/11/09 07:54:06;;;;;;;21.42;14.30;;;10.30;99.90;;;;;;5075067;28;21139;-81
2022/11/09 07:56:31;;;;;;;19.70;13.48;;;10.30;99.90;;;;;;5069468;28;20066;-81
2022/11/09 07:58:57;;;;;;;19.85;13.70;;;10.30;99.90;;;;;;5071023;28;20031;-81
2022/11/09 08:01:23;;;;;;;23.75;14.65;;;10.30;99.90;;;;;;5071791;28;20017;-79
2022/11/09 08:03:48;;;;;;;20.90;14.50;;;10.40;99.90;;;;;;5075210;28;20051;-80
2022/11/09 08:06:14;;;;;;;22.05;15.02;;;10.30;99.90;;;;;;5071834;28;20128;-79
2022/11/09 08:08:39;;;;;;;23.30;14.55;;;10.20;99.90;;;;;;5073790;28;20119;-80
2022/11/09 08:11:05;;;;;;;23.55;14.95;;;10.30;99.90;;;;;;5070566;28;20032;-80
2022/11/09 08:13:30;;;;;;;22.80;14.57;;;10.30;99.90;;;;;;5066905;28;20512;-80
2022/11/09 08:15:56;;;;;;;22.95;15.00;;;10.30;99.90;;;;;;5067805;28;20800;-79
2022/11/09 08:18:22;;;;;;;22.45;14.73;;;10.20;99.90;;;;;;5073588;28;20028;-80
2022/11/09 08:20:48;;;;;;;22.67;14.13;;;10.20;99.90;;;;;;5073593;28;20069;-80
2022/11/09 08:23:17;;;;;;;21.25;14.75;;;10.30;99.90;;;;;;5077434;28;20042;-79
2022/11/09 08:25:43;;;;;;;20.55;13.98;;;10.30;99.90;;;;;;5069795;28;20016;-79
2022/11/09 08:28:08;;;;;;;26.95;15.23;;;10.30;99.90;;;;;;5062284;28;20085;-79
2022/11/09 08:30:34;;;;;;;24.42;15.70;;;10.30;99.90;;;;;;5075362;28;20040;-80
2022/11/09 08:33:02;;;;;;;23.52;14.68;;;10.30;99.90;;;;;;5069496;28;20031;-80
2022/11/09 08:35:29;;;;;;;24.45;14.35;;;10.30;99.90;;;;;;5069549;28;20028;-80
2022/11/09 08:37:55;;;;;;;22.77;14.75;;;10.30;99.90;;;;;;5067273;28;20045;-81
2022/11/09 08:40:23;;;;;;;23.35;14.05;;;10.30;99.90;;;;;;5074421;28;20020;-80
2022/11/09 08:42:50;;;;;;;22.63;14.50;;;10.30;99.90;;;;;;5073906;28;20436;-79
2022/11/09 08:45:16;;;;;;;25.88;16.35;;;10.30;99.90;;;;;;5070276;28;20024;-80
2022/11/09 08:47:42;;;;;;;22.75;14.73;;;10.30;99.90;;;;;;5069798;28;20134;-80
2022/11/09 08:50:10;;;;;;;24.73;15.52;;;10.30;99.90;;;;;;5070085;28;20043;-80
2022/11/09 08:52:35;;;;;;;22.98;14.48;;;10.30;99.90;;;;;;5068936;28;20588;-80
2022/11/09 08:55:02;;;;;;;24.50;16.48;;;10.30;99.90;;;;;;5065115;28;20061;-80
2022/11/09 08:57:28;;;;;;;25.70;14.75;;;10.30;99.90;;;;;;5060854;28;20049;-80
2022/11/09 08:59:54;;;;;;;25.95;16.45;;;10.40;99.90;;;;;;5058615;28;20054;-80
2022/11/09 09:02:20;;;;;;;25.75;16.33;;;10.40;99.90;;;;;;5057918;28;20024;-80
2022/11/09 09:04:45;;;;;;;26.45;15.75;;;10.40;99.90;;;;;;5068506;28;20055;-80
2022/11/09 09:07:11;;;;;;;27.58;16.63;;;10.30;99.90;;;;;;5071667;28;20743;-80
2022/11/09 09:09:37;;;;;;;28.35;16.95;;;10.40;99.90;;;;;;5073009;28;20024;-79
2022/11/09 09:12:05;;;;;;;28.60;16.48;;;10.40;99.90;;;;;;5075015;28;20044;-80
2022/11/09 09:14:30;;;;;;;26.67;16.77;;;10.40;99.90;;;;;;5073073;28;20161;-80
2022/11/09 09:16:56;;;;;;;26.27;15.60;;;10.40;99.90;;;;;;5071339;28;20048;-79
2022/11/09 09:19:22;;;;;;;30.30;18.60;;;10.40;99.90;;;;;;5064901;28;20442;-80
2022/11/09 09:21:47;;;;;;;31.50;18.02;;;10.40;99.90;;;;;;5072959;28;20028;-79
2022/11/09 09:24:13;;;;;;;32.40;19.20;;;10.40;99.90;;;;;;5064544;28;20028;-80
2022/11/09 09:26:38;;;;;;;27.83;16.38;;;10.50;99.90;;;;;;5072626;28;20028;-80
2022/11/09 09:29:04;;;;;;;29.38;17.02;;;10.50;99.90;;;;;;5067558;28;20032;-80
2022/11/09 09:31:30;;;;;;;28.17;16.92;;;10.50;99.90;;;;;;5068659;28;20070;-80
2022/11/09 09:33:55;;;;;;;23.27;15.35;;;10.50;99.90;;;;;;5067881;28;20031;-80
2022/11/09 09:36:23;;;;;;;27.73;15.50;;;10.60;99.90;;;;;;5077079;28;20024;-80
2022/11/09 09:38:53;;;;;;;24.23;14.85;;;10.50;99.90;;;;;;5077436;28;20036;-81
2022/11/09 09:41:44;;;;;;;22.05;14.93;;;10.60;99.90;;;;;;5087420;28;20024;-80
2022/11/09 09:44:38;;;;;;;27.58;16.02;;;10.50;99.90;;;;;;5089203;28;20036;-80
2022/11/09 09:47:31;;;;;;;25.77;15.60;;;10.50;99.90;;;;;;5085947;28;20049;-81
2022/11/09 09:50:03;;;;;;;24.10;15.32;;;10.40;99.90;;;;;;5086268;28;20032;-81
2022/11/09 09:52:48;;;;;;;;;;;10.50;99.90;;;;;;5083874;28;20032;-80
2022/11/09 09:55:19;;;;;;;24.38;15.57;;;10.50;99.90;;;;;;5093321;28;19919;-80
2022/11/09 09:57:50;;;;;;;28.92;16.48;;;10.50;99.90;;;;;;5092196;28;20032;-79
2022/11/09 10:00:23;;;;;;;29.35;18.00;;;10.60;99.90;;;;;;5092508;28;20035;-79
2022/11/09 10:02:50;;;;;;;24.98;16.33;;;10.60;99.90;;;;;;5089481;28;21465;-80
2022/11/09 10:05:17;;;;;;;26.50;16.77;;;10.70;99.90;;;;;;5090826;28;20039;-81
2022/11/09 10:08:07;;;;;;;24.70;16.42;;;10.70;99.90;;;;;;5082739;28;20028;-80
2022/11/09 10:11:17;;;;;;;24.30;16.80;;;10.70;99.90;;;;;;5092448;28;20492;-79
2022/11/09 10:13:55;;;;;;;25.73;16.88;;;10.60;99.90;;;;;;5089309;28;20062;-80
2022/11/09 10:16:39;;;;;;;25.25;16.80;;;10.60;99.90;;;;;;5088990;28;20466;-79
2022/11/09 10:19:23;;;;;;;25.48;16.40;;;10.60;99.90;;;;;;5089368;28;20032;-76
2022/11/09 10:22:18;;;;;;;26.08;17.08;;;10.50;99.90;;;;;;5085643;28;20085;-76
2022/11/09 10:24:55;;;;;;;28.58;18.77;;;10.60;99.90;;;;;;5072636;28;20477;-76
2022/11/09 10:27:35;;;;;;;25.17;17.58;;;10.50;99.90;;;;;;5077146;28;20106;-76
2022/11/09 10:30:01;;;;;;;27.42;18.40;;;10.50;99.90;;;;;;5079502;28;20016;-76
2022/11/09 10:32:31;;;;;;;28.30;18.13;;;10.50;99.90;;;;;;5078748;28;20024;-76
2022/11/09 10:35:36;;;;;;;34.80;19.60;;;10.60;99.90;;;;;;5082790;28;20031;-76
2022/11/09 10:38:02;;;;;;;27.52;18.20;;;10.60;99.90;;;;;;5077024;28;20067;-76
2022/11/09 10:40:30;;;;;;;27.60;18.40;;;10.70;99.90;;;;;;5082373;28;20545;-79
2022/11/09 10:43:03;;;;;;;29.63;19.15;;;10.70;99.90;;;;;;5074706;28;20052;-81
2022/11/09 10:45:32;;;;;;;30.38;19.45;;;10.70;99.90;;;;;;5070665;28;20069;-79
2022/11/09 10:47:59;;;;;;;29.42;18.95;;;10.80;99.90;;;;;;5068142;28;20500;-79
2022/11/09 10:50:51;;;;;;;27.33;19.73;;;10.80;99.90;;;;;;5071713;28;20137;-79
2022/11/09 10:53:27;;;;;;;35.85;20.73;;;10.70;99.90;;;;;;5073137;28;20075;-80
2022/11/09 10:56:13;;;;;;;34.42;22.40;;;10.70;99.90;;;;;;5074496;28;20069;-80
2022/11/09 10:58:50;;;;;;;44.08;26.35;;;10.70;99.90;;;;;;5062431;28;20048;-79
2022/11/09 11:01:21;;;;;;;38.63;25.48;;;10.70;99.90;;;;;;5067424;28;20036;-81
2022/11/09 11:03:52;;;;;;;34.80;23.13;;;10.80;99.90;;;;;;5068597;28;20032;-80
2022/11/09 11:06:26;;;;;;;36.25;24.75;;;10.80;99.90;;;;;;5063880;28;20024;-80
2022/11/09 11:09:12;;;;;;;30.38;21.92;;;10.80;99.90;;;;;;5072804;28;20027;-76
2022/11/09 11:11:38;;;;;;;33.22;20.65;;;10.80;99.90;;;;;;5071700;28;20112;-79
2022/11/09 11:14:21;;;;;;;33.83;21.45;;;10.80;99.90;;;;;;5066874;28;20032;-80
2022/11/09 11:16:49;;;;;;;31.05;20.27;;;10.90;99.90;;;;;;5077616;28;20621;-79
2022/11/09 11:19:44;;;;;;;33.30;22.08;;;10.90;99.90;;;;;;5071739;28;20020;-80
2022/11/09 11:22:10;;;;;;;38.33;23.20;;;10.80;99.90;;;;;;5063537;28;20044;-80
2022/11/09 11:24:55;;;;;;;36.72;23.15;;;10.80;99.90;;;;;;5066723;28;20078;-79
2022/11/09 11:27:34;;;;;;;42.00;26.50;;;10.90;99.90;;;;;;5074513;28;20065;-79
2022/11/09 11:30:17;;;;;;;79.85;41.58;;;10.90;99.90;;;;;;5076994;28;20046;-80
2022/11/09 11:32:43;;;;;;;57.42;32.50;;;10.90;99.90;;;;;;5070679;28;20039;-80
2022/11/09 11:35:42;;;;;;;49.60;28.90;;;10.90;99.90;;;;;;5078049;28;20031;-76
2022/11/09 11:38:56;;;;;;;42.78;25.52;;;10.90;99.90;;;;;;5069498;28;20062;-77
2022/11/09 11:41:35;;;;;;;35.40;23.23;;;10.90;99.90;;;;;;5047089;28;20101;-76
2022/11/09 11:44:16;;;;;;;40.25;24.55;;;11.00;99.90;;;;;;5074427;28;20024;-76
2022/11/09 11:47:07;;;;;;;45.13;23.60;;;11.00;99.90;;;;;;5063334;28;20032;-76
2022/11/09 11:49:56;;;;;;;39.47;23.50;;;11.00;99.90;;;;;;5059099;28;20281;-76
2022/11/09 11:52:31;;;;;;;37.53;22.92;;;11.00;99.90;;;;;;5066199;28;20047;-76
2022/11/09 11:55:21;;;;;;;41.30;23.77;;;10.90;99.90;;;;;;5073626;28;20028;-76
2022/11/09 11:58:17;;;;;;;40.90;24.45;;;10.80;99.90;;;;;;5075706;28;20054;-81
2022/11/09 12:01:09;;;;;;;39.88;23.75;;;10.70;99.90;;;;;;5074076;28;20296;-80
2022/11/09 12:04:01;;;;;;;43.58;25.70;;;10.70;99.90;;;;;;5074514;28;20230;-80
2022/11/09 12:06:56;;;;;;;37.42;24.02;;;10.70;99.90;;;;;;5076178;28;20119;-80
2022/11/09 12:09:30;;;;;;;44.13;25.33;;;10.70;99.90;;;;;;5063649;28;20040;-79
2022/11/09 12:12:05;;;;;;;39.80;24.17;;;10.70;99.90;;;;;;5060723;28;20397;-80
2022/11/09 12:14:42;;;;;;;41.45;24.15;;;10.70;99.90;;;;;;5062159;28;20142;-80
2022/11/09 12:17:40;;;;;;;42.92;25.00;;;10.70;99.90;;;;;;5077547;27;20043;-77
2022/11/09 12:20:37;;;;;;;44.33;25.63;;;10.70;99.90;;;;;;5058434;28;20032;-77
2022/11/09 12:23:11;;;;;;;48.00;27.67;;;10.80;99.90;;;;;;5070438;28;20149;-77
2022/11/09 12:25:55;;;;;;;45.85;27.95;;;10.80;99.90;;;;;;5071136;28;20141;-76
2022/11/09 12:29:05;;;;;;;43.30;26.00;;;10.80;99.90;;;;;;5069057;28;20078;-76
2022/11/09 12:31:47;;;;;;;39.50;24.55;;;10.80;99.90;;;;;;5066797;28;20040;-76
2022/11/09 12:34:16;;;;;;;;;;;10.80;99.90;;;;;;5066069;28;20043;-76
2022/11/09 12:36:50;;;;;;;43.80;26.15;;;10.80;99.90;;;;;;5069460;28;19920;-76
2022/11/09 12:39:28;;;;;;;40.55;24.88;;;10.80;99.90;;;;;;5064769;28;20528;-77
2022/11/09 12:42:04;;;;;;;43.72;26.90;;;10.80;99.90;;;;;;5073539;28;20169;-77
2022/11/09 12:44:36;;;;;;;40.35;25.35;;;10.80;99.90;;;;;;5071067;28;20388;-78
2022/11/09 12:47:06;;;;;;;43.35;25.88;;;10.90;99.90;;;;;;5071703;28;20502;-77
2022/11/09 12:49:39;;;;;;;41.17;25.90;;;10.90;99.90;;;;;;5072145;28;20039;-77
2022/11/09 12:52:07;;;;;;;44.53;26.63;;;10.90;99.90;;;;;;5066665;28;20602;-77
2022/11/09 12:54:35;;;;;;;40.42;25.05;;;10.90;99.90;;;;;;5068062;28;20399;-77
2022/11/09 12:57:08;;;;;;;41.75;25.27;;;10.90;99.90;;;;;;5065556;28;20210;-77
2022/11/09 12:59:43;;;;;;;41.42;24.25;;;10.90;99.90;;;;;;5065665;28;20042;-77
2022/11/09 13:02:25;;;;;;;40.50;24.55;;;10.90;99.90;;;;;;5070787;28;20032;-77
2022/11/09 13:05:03;;;;;;;40.15;24.38;;;10.90;99.90;;;;;;5068421;28;20024;-77
2022/11/09 13:07:30;;;;;;;37.92;24.23;;;10.90;99.90;;;;;;5068484;28;20062;-78
2022/11/09 13:09:58;;;;;;;41.38;25.75;;;10.90;99.90;;;;;;5069054;28;20024;-77
2022/11/09 13:12:36;;;;;;;41.22;25.30;;;11.00;99.90;;;;;;5067967;28;20032;-79
2022/11/09 13:15:33;;;;;;;44.10;25.92;;;11.00;99.90;;;;;;5067684;28;20020;-79
2022/11/09 13:18:04;;;;;;;42.72;26.60;;;10.90;99.90;;;;;;5052043;28;20167;-79